Time;durP1;ratioP1;P1;durP2;ratioP2;P2;SDS_P1;SDS_P2;PMS_P1;PMS_P2;Temp;Humidity;BMP_temperature;BMP_pressure;BME280_temperature;BME280_humidity;BME280_pressure;Samples;Min_cycle;Max_cycle;Signal;HPM_P1;HPM_P2
2022/10/14 12:13:36;;;;;;;70.65;50.85;;;21.20;1.00;;;;;;5073430;28;20497;-58
2022/10/14 12:16:04;;;;;;;67.32;51.97;;;21.20;1.00;;;;;;5061124;28;20029;-59
2022/10/14 12:18:31;;;;;;;66.90;51.40;;;21.00;1.00;;;;;;5063229;28;20021;-59
2022/10/14 12:21:22;;;;;;;68.97;51.22;;;20.40;1.00;;;;;;5060844;28;20112;-59
2022/10/14 12:24:10;;;;;;;74.38;51.58;;;20.50;1.00;;;;;;5064111;28;20028;-59
2022/10/14 12:26:53;;;;;;;68.05;51.38;;;19.50;1.00;;;;;;5058257;28;20025;-60
2022/10/14 12:29:22;;;;;;;68.88;49.20;;;20.30;1.00;;;;;;5067141;28;20459;-58
2022/10/14 12:32:19;;;;;;;60.60;44.42;;;20.70;1.00;;;;;;5057431;28;20036;-60
2022/10/14 12:34:52;;;;;;;62.83;46.63;;;21.00;1.00;;;;;;5057438;28;20551;-45
2022/10/14 12:37:33;;;;;;;61.83;45.03;;;21.00;1.00;;;;;;5057003;28;20063;-50
2022/10/14 12:40:02;;;;;;;59.05;43.40;;;21.20;1.00;;;;;;5062647;28;20037;-53
2022/10/14 12:42:33;;;;;;;60.75;44.80;;;21.20;1.00;;;;;;5058779;28;20026;-54
2022/10/14 12:45:13;;;;;;;62.58;45.03;;;21.20;1.00;;;;;;5066224;28;20489;-46
2022/10/14 12:47:39;;;;;;;61.58;45.78;;;21.30;1.00;;;;;;5063247;28;20485;-48
2022/10/14 12:50:14;;;;;;;62.75;47.08;;;21.20;1.00;;;;;;5062364;28;20033;-53
2022/10/14 12:52:45;;;;;;;64.13;46.60;;;21.20;1.00;;;;;;5062502;28;20045;-52
2022/10/14 12:55:20;;;;;;;68.25;46.83;;;21.30;1.00;;;;;;5060452;28;20111;-49
2022/10/14 12:57:59;;;;;;;56.10;44.38;;;21.10;1.00;;;;;;5064720;28;20028;-53
2022/10/14 13:00:24;;;;;;;64.75;47.05;;;21.10;1.00;;;;;;5058542;28;20025;-52
2022/10/14 13:03:00;;;;;;;64.97;46.25;;;21.10;1.00;;;;;;5065104;28;20047;-57
2022/10/14 13:05:40;;;;;;;66.68;45.75;;;21.10;1.00;;;;;;5059677;28;20108;-60
2022/10/14 13:08:14;;;;;;;61.67;46.45;;;21.20;1.00;;;;;;5062189;28;20469;-59
2022/10/14 13:10:53;;;;;;;60.88;44.92;;;21.20;1.00;;;;;;5064696;28;20113;-59
2022/10/14 13:13:37;;;;;;;61.22;44.28;;;21.10;1.00;;;;;;5063183;28;20090;-61
2022/10/14 13:16:24;;;;;;;57.85;44.47;;;21.20;1.00;;;;;;5063828;28;20021;-59
2022/10/14 13:18:54;;;;;;;59.30;43.13;;;21.20;1.00;;;;;;5058563;28;20029;-53
2022/10/14 13:21:31;;;;;;;60.35;43.75;;;21.20;1.00;;;;;;5058541;28;20471;-54
2022/10/14 13:24:04;;;;;;;64.55;45.28;;;21.30;1.00;;;;;;5053136;28;20037;-51
2022/10/14 13:26:54;;;;;;;51.40;42.03;;;21.40;1.00;;;;;;5051417;28;20060;-50
2022/10/14 13:29:19;;;;;;;57.47;43.38;;;21.40;1.00;;;;;;5053552;28;20075;-54
2022/10/14 13:32:12;;;;;;;63.17;45.25;;;21.40;1.00;;;;;;5045334;28;20037;-55
2022/10/14 13:34:55;;;;;;;60.47;43.85;;;21.40;1.00;;;;;;5047570;28;20037;-54
2022/10/14 13:37:36;;;;;;;54.40;41.97;;;21.50;1.00;;;;;;5036602;28;20471;-48
2022/10/14 13:40:20;;;;;;;49.80;38.30;;;21.70;1.00;;;;;;5048158;28;20021;-58
2022/10/14 13:42:55;;;;;;;46.70;37.10;;;21.90;1.00;;;;;;5040109;28;20091;-52
2022/10/14 13:45:29;;;;;;;46.78;35.97;;;21.80;1.00;;;;;;5043432;28;20045;-50
2022/10/14 13:47:55;;;;;;;;;;;21.80;1.00;;;;;;5048031;28;20029;-58
2022/10/14 13:50:24;;;;;;;46.30;36.33;;;21.80;1.00;;;;;;5046780;28;20411;-52
2022/10/14 13:53:00;;;;;;;49.08;36.08;;;21.80;1.00;;;;;;5051659;28;20069;-55
2022/10/14 13:55:26;;;;;;;47.60;36.92;;;21.90;1.00;;;;;;5051219;28;20032;-47
2022/10/14 13:58:09;;;;;;;51.78;39.72;;;22.00;1.00;;;;;;5052408;28;20107;-47
2022/10/14 14:00:38;;;;;;;51.60;38.90;;;22.10;1.00;;;;;;5048015;28;20025;-53
2022/10/14 14:03:22;;;;;;;52.67;40.20;;;22.00;1.00;;;;;;5038804;28;20052;-59
2022/10/14 14:05:49;;;;;;;47.83;38.22;;;22.10;1.00;;;;;;5049101;28;20052;-60
2022/10/14 14:08:28;;;;;;;56.25;42.63;;;22.10;1.00;;;;;;5048588;28;22086;-54
2022/10/14 14:10:59;;;;;;;51.42;40.88;;;22.00;1.00;;;;;;5044800;28;20033;-56
2022/10/14 14:13:44;;;;;;;57.80;41.53;;;21.90;1.00;;;;;;5048372;28;20099;-57
2022/10/14 14:16:17;;;;;;;;;;;21.80;1.00;;;;;;5048746;28;20052;-57
2022/10/14 14:18:46;;;;;;;55.90;41.20;;;21.70;1.00;;;;;;5040202;28;19952;-57
2022/10/14 14:21:12;;;;;;;54.92;42.95;;;21.80;1.00;;;;;;5050041;28;20021;-57
2022/10/14 14:23:49;;;;;;;53.72;39.75;;;21.80;1.00;;;;;;5041994;28;20033;-60
2022/10/14 14:26:15;;;;;;;53.75;40.45;;;21.80;1.00;;;;;;5047756;28;20052;-59
2022/10/14 14:28:47;;;;;;;49.28;40.50;;;21.90;1.00;;;;;;5037976;28;20025;-54
2022/10/14 14:31:18;;;;;;;51.78;39.70;;;21.80;1.00;;;;;;5039986;28;20052;-50
2022/10/14 14:33:45;;;;;;;53.67;40.42;;;21.70;1.00;;;;;;5040832;28;20037;-52
2022/10/14 14:36:16;;;;;;;54.03;40.60;;;21.50;1.00;;;;;;5038689;28;20017;-50
2022/10/14 14:38:52;;;;;;;55.08;39.90;;;21.50;1.00;;;;;;5046864;28;20060;-44
2022/10/14 14:41:21;;;;;;;53.70;41.42;;;21.60;1.00;;;;;;5041709;28;20028;-47
2022/10/14 14:43:50;;;;;;;46.42;40.25;;;21.70;1.00;;;;;;5049651;28;20120;-44
2022/10/14 14:46:19;;;;;;;58.83;40.97;;;21.80;1.00;;;;;;5042278;28;20104;-49
2022/10/14 14:48:51;;;;;;;56.47;41.25;;;21.70;1.00;;;;;;5049051;28;20037;-46
2022/10/14 14:51:17;;;;;;;53.53;42.25;;;21.80;1.00;;;;;;5047875;28;20037;-43
2022/10/14 14:53:50;;;;;;;55.80;40.63;;;21.90;1.00;;;;;;5040273;28;20033;-46
2022/10/14 14:56:23;;;;;;;53.97;40.90;;;21.90;1.00;;;;;;5055111;28;20057;-53
2022/10/14 14:58:55;;;;;;;53.47;41.70;;;22.00;1.00;;;;;;5043242;28;20115;-51
2022/10/14 15:01:25;;;;;;;54.90;42.40;;;22.00;1.00;;;;;;5046956;28;20386;-52
2022/10/14 15:03:54;;;;;;;57.45;42.88;;;21.90;1.00;;;;;;5047106;28;20021;-49
2022/10/14 15:06:20;;;;;;;54.03;42.92;;;21.80;1.00;;;;;;5038101;28;20104;-47
2022/10/14 15:08:51;;;;;;;54.42;42.17;;;21.70;1.00;;;;;;5040429;28;20108;-49
2022/10/14 15:11:18;;;;;;;50.92;41.15;;;21.60;1.00;;;;;;5052979;28;20449;-53
2022/10/14 15:13:51;;;;;;;57.90;42.55;;;21.60;1.00;;;;;;5044567;28;20037;-51
2022/10/14 15:16:41;;;;;;;55.35;42.47;;;21.60;1.00;;;;;;5052642;28;20035;-54
2022/10/14 15:19:19;;;;;;;56.42;41.58;;;21.50;1.00;;;;;;5042743;28;20549;-54
2022/10/14 15:21:48;;;;;;;51.53;40.63;;;21.30;1.00;;;;;;5048450;28;20052;-53
2022/10/14 15:24:14;;;;;;;53.47;40.28;;;21.30;1.00;;;;;;5040372;28;20021;-59
2022/10/14 15:26:40;;;;;;;51.85;40.47;;;21.20;1.00;;;;;;5049242;28;20027;-54
2022/10/14 15:29:15;;;;;;;51.05;40.60;;;21.10;1.00;;;;;;5048613;28;20017;-49
2022/10/14 15:32:02;;;;;;;52.25;40.08;;;21.10;1.00;;;;;;5050863;28;20039;-52
2022/10/14 15:34:28;;;;;;;53.22;40.25;;;21.10;1.00;;;;;;5045626;28;20036;-60
2022/10/14 15:36:53;;;;;;;50.03;40.80;;;21.10;1.00;;;;;;5051240;28;20033;-60
2022/10/14 15:39:20;;;;;;;54.25;41.47;;;21.10;1.00;;;;;;5045830;28;20108;-59
2022/10/14 15:41:46;;;;;;;51.53;39.42;;;21.00;1.00;;;;;;5050161;28;20022;-59
2022/10/14 15:44:12;;;;;;;55.30;41.42;;;21.00;1.00;;;;;;5048763;28;20063;-57
2022/10/14 15:49:32;;;;;;;57.00;41.20;;;20.90;1.00;;;;;;5045689;28;20436;-56
2022/10/14 15:51:57;;;;;;;52.20;40.47;;;20.90;1.00;;;;;;5047965;28;20052;-51
2022/10/14 15:54:26;;;;;;;54.28;41.55;;;20.80;1.00;;;;;;5040476;28;20067;-50
2022/10/14 15:56:56;;;;;;;52.03;40.80;;;20.90;1.00;;;;;;5049903;28;20017;-61
2022/10/14 15:59:25;;;;;;;57.53;40.58;;;20.80;1.00;;;;;;5047222;28;20064;-47
2022/10/14 16:01:51;;;;;;;53.42;41.45;;;20.80;1.00;;;;;;5039611;28;20040;-53
2022/10/14 16:04:23;;;;;;;54.78;41.00;;;20.70;1.00;;;;;;5047226;28;20575;-54
2022/10/14 16:06:53;;;;;;;52.40;41.80;;;20.60;1.00;;;;;;5045262;28;20529;-46
2022/10/14 16:09:22;;;;;;;52.17;40.70;;;20.60;1.00;;;;;;5037844;28;20330;-46
2022/10/14 16:11:55;;;;;;;54.65;41.70;;;20.60;1.00;;;;;;5049686;28;20124;-43
2022/10/14 16:14:25;;;;;;;49.83;39.08;;;20.60;1.00;;;;;;5043150;28;20033;-47
2022/10/14 16:16:52;;;;;;;53.60;41.38;;;20.50;1.00;;;;;;5046139;28;20109;-46
2022/10/14 16:19:17;;;;;;;54.58;41.50;;;20.60;1.00;;;;;;5051097;28;20040;-49
2022/10/14 16:21:43;;;;;;;53.03;39.75;;;20.60;1.00;;;;;;5039092;28;20033;-50
2022/10/14 16:24:16;;;;;;;53.08;41.13;;;20.60;1.00;;;;;;5049628;28;20075;-50
2022/10/14 16:26:42;;;;;;;51.42;40.25;;;20.50;1.00;;;;;;5048240;28;20046;-55
2022/10/14 16:29:09;;;;;;;54.88;43.13;;;20.50;1.00;;;;;;5044672;28;20378;-48
2022/10/14 16:31:35;;;;;;;53.85;40.42;;;20.50;1.00;;;;;;5046588;28;20120;-47
2022/10/14 16:34:00;;;;;;;55.58;42.25;;;20.50;1.00;;;;;;5046720;28;20025;-55
2022/10/14 16:36:27;;;;;;;52.88;40.83;;;20.40;1.00;;;;;;5050072;28;20535;-55
2022/10/14 16:38:53;;;;;;;54.72;41.92;;;20.40;1.00;;;;;;5040549;28;20049;-55
2022/10/14 16:41:18;;;;;;;52.33;39.42;;;20.40;1.00;;;;;;5045423;28;20498;-52
2022/10/14 16:43:46;;;;;;;56.97;41.28;;;20.40;1.00;;;;;;5042991;28;20076;-46
2022/10/14 16:46:12;;;;;;;55.60;42.45;;;20.30;1.00;;;;;;5045251;28;20104;-45
2022/10/14 16:48:37;;;;;;;56.03;43.38;;;20.30;1.00;;;;;;5051678;28;20056;-44
2022/10/14 16:51:03;;;;;;;53.50;40.85;;;20.30;1.00;;;;;;5047399;28;20128;-48
2022/10/14 16:53:47;;;;;;;55.45;41.85;;;20.20;1.00;;;;;;5049994;28;20067;-47
2022/10/14 16:58:59;;;;;;;57.50;45.50;;;20.20;1.00;;;;;;5052871;28;20036;-48
2022/10/14 17:01:24;;;;;;;58.50;45.10;;;20.20;1.00;;;;;;5056118;28;20482;-45
2022/10/14 17:03:50;;;;;;;58.78;42.72;;;20.10;1.00;;;;;;5050098;28;20087;-45
2022/10/14 17:06:16;;;;;;;58.00;44.30;;;20.10;1.00;;;;;;5055812;28;20060;-45
2022/10/14 17:08:42;;;;;;;57.85;43.83;;;20.10;1.00;;;;;;5056229;28;20028;-47
2022/10/14 17:11:11;;;;;;;62.40;46.25;;;20.10;1.00;;;;;;5060210;28;20025;-46
2022/10/14 17:13:36;;;;;;;59.88;45.58;;;20.00;1.00;;;;;;5055736;28;20543;-45
2022/10/14 17:16:03;;;;;;;60.55;46.42;;;20.10;1.00;;;;;;5054927;28;20025;-47
2022/10/14 17:18:30;;;;;;;63.35;46.97;;;20.00;1.00;;;;;;5056081;28;20021;-44
2022/10/14 17:21:07;;;;;;;61.05;45.13;;;20.00;1.00;;;;;;5054760;28;20032;-46
2022/10/14 17:23:34;;;;;;;61.80;46.47;;;20.00;1.00;;;;;;5055873;28;20079;-45
2022/10/14 17:26:01;;;;;;;61.45;45.97;;;20.00;1.00;;;;;;5054959;28;20021;-45
2022/10/14 17:28:27;;;;;;;58.42;46.70;;;20.00;1.00;;;;;;5058462;28;20098;-47
2022/10/14 17:30:53;;;;;;;59.72;45.42;;;19.90;1.00;;;;;;5054809;28;20468;-50
2022/10/14 17:33:18;;;;;;;65.25;49.47;;;19.90;1.00;;;;;;5055400;28;20465;-44
2022/10/14 17:35:44;;;;;;;63.83;47.70;;;19.90;1.00;;;;;;5054189;28;20036;-46
2022/10/14 17:38:10;;;;;;;67.47;49.30;;;19.90;1.00;;;;;;5053196;28;20044;-45
2022/10/14 17:40:35;;;;;;;62.78;48.72;;;19.80;1.00;;;;;;5043082;28;20017;-45
2022/10/14 17:43:01;;;;;;;70.43;49.85;;;19.80;1.00;;;;;;5052354;28;20024;-46
2022/10/14 17:45:27;;;;;;;61.40;47.80;;;19.80;1.00;;;;;;5046031;28;20029;-48
2022/10/14 17:47:53;;;;;;;66.75;49.70;;;19.80;1.00;;;;;;5055079;28;20032;-47
2022/10/14 17:50:19;;;;;;;65.05;50.05;;;19.70;1.00;;;;;;5053425;28;20021;-48
2022/10/14 17:52:45;;;;;;;63.95;48.78;;;19.70;1.00;;;;;;5045625;28;20033;-48
2022/10/14 17:55:11;;;;;;;69.22;49.03;;;19.70;1.00;;;;;;5049370;28;20033;-51
2022/10/14 17:57:37;;;;;;;69.45;50.45;;;19.70;1.00;;;;;;5055220;28;20125;-50
2022/10/14 18:00:03;;;;;;;69.05;50.90;;;19.70;1.00;;;;;;5046614;28;20119;-46
2022/10/14 18:02:28;;;;;;;70.55;51.22;;;19.60;1.00;;;;;;5043819;28;20078;-48
2022/10/14 18:04:54;;;;;;;68.43;52.05;;;19.70;1.00;;;;;;5052781;28;20021;-46
2022/10/14 18:07:21;;;;;;;69.18;52.95;;;19.70;1.00;;;;;;5041676;28;20033;-45
2022/10/14 18:09:48;;;;;;;67.55;51.20;;;19.60;1.00;;;;;;5053418;28;20025;-47
2022/10/14 18:12:14;;;;;;;72.13;53.42;;;19.60;1.00;;;;;;5053132;28;20053;-49
2022/10/14 18:14:40;;;;;;;67.03;50.83;;;19.50;1.00;;;;;;5053771;28;20108;-47
2022/10/14 18:17:05;;;;;;;71.13;54.30;;;19.50;1.00;;;;;;5054302;28;20112;-48
2022/10/14 18:19:32;;;;;;;65.53;50.70;;;19.50;1.00;;;;;;5054365;28;20482;-47
2022/10/14 18:21:58;;;;;;;65.00;51.13;;;19.50;1.00;;;;;;5054398;28;20037;-50
2022/10/14 18:24:23;;;;;;;71.07;50.78;;;19.40;1.00;;;;;;5055113;28;20055;-49
2022/10/14 18:26:50;;;;;;;65.78;50.15;;;19.50;1.00;;;;;;5047312;28;20440;-49
2022/10/14 18:29:16;;;;;;;70.43;51.80;;;19.40;1.00;;;;;;5053854;28;20028;-48
2022/10/14 18:31:41;;;;;;;68.05;50.75;;;19.40;1.00;;;;;;5054684;28;20025;-48
2022/10/14 18:34:10;;;;;;;69.28;51.78;;;19.40;1.00;;;;;;5054652;28;20592;-51
2022/10/14 18:36:36;;;;;;;65.80;51.13;;;19.40;1.00;;;;;;5053481;28;20025;-52
2022/10/14 18:39:09;;;;;;;71.65;53.55;;;19.30;1.00;;;;;;5053059;28;20373;-50
2022/10/14 18:41:38;;;;;;;78.97;53.33;;;19.30;1.00;;;;;;5052043;28;20124;-51
2022/10/14 18:44:04;;;;;;;70.55;53.45;;;19.30;1.00;;;;;;5054141;28;20048;-52
2022/10/14 18:46:32;;;;;;;80.15;56.20;;;19.20;1.00;;;;;;5053304;28;20383;-48
2022/10/14 18:48:59;;;;;;;75.00;56.20;;;19.20;1.00;;;;;;5053874;28;20021;-53
2022/10/14 18:51:32;;;;;;;77.78;55.20;;;19.20;1.00;;;;;;5052616;28;20024;-48
2022/10/14 18:54:00;;;;;;;75.95;53.17;;;19.20;1.00;;;;;;5047013;28;20029;-49
2022/10/14 18:56:28;;;;;;;76.28;53.85;;;19.20;1.00;;;;;;5051769;28;20105;-49
2022/10/14 18:58:59;;;;;;;72.82;54.63;;;19.20;1.00;;;;;;5056788;28;20021;-47
2022/10/14 19:01:25;;;;;;;72.00;52.97;;;19.20;1.00;;;;;;5053459;28;20032;-50
2022/10/14 19:03:52;;;;;;;68.47;51.95;;;19.10;1.00;;;;;;5045985;28;20021;-51
2022/10/14 19:06:19;;;;;;;73.70;55.97;;;19.10;1.00;;;;;;5049956;28;20028;-47
2022/10/14 19:08:45;;;;;;;75.05;54.78;;;19.10;1.00;;;;;;5056373;28;20029;-48
2022/10/14 19:11:20;;;;;;;82.55;56.35;;;19.10;1.00;;;;;;5047582;28;20087;-47
2022/10/14 19:13:51;;;;;;;77.45;58.30;;;19.10;1.00;;;;;;5042996;28;20038;-50
2022/10/14 19:16:22;;;;;;;76.03;57.90;;;19.10;1.00;;;;;;5048024;28;20040;-48
2022/10/14 19:18:59;;;;;;;79.80;58.90;;;19.00;1.00;;;;;;5056507;28;20040;-49
2022/10/14 19:21:28;;;;;;;78.20;57.50;;;19.00;1.00;;;;;;5047498;28;20327;-49
2022/10/14 19:23:55;;;;;;;75.80;56.20;;;19.00;1.00;;;;;;5043765;28;20033;-51
2022/10/14 19:26:24;;;;;;;74.55;54.10;;;19.00;1.00;;;;;;5044080;28;20029;-47
2022/10/14 19:28:50;;;;;;;76.10;55.38;;;18.90;1.00;;;;;;5055880;28;20131;-49
2022/10/14 19:31:19;;;;;;;72.80;53.30;;;18.90;1.00;;;;;;5052056;28;20036;-51
2022/10/14 19:33:45;;;;;;;71.65;55.65;;;18.90;1.00;;;;;;5053313;28;20028;-50
2022/10/14 19:36:13;;;;;;;71.63;57.60;;;18.90;1.00;;;;;;5052663;28;20073;-50
2022/10/14 19:38:42;;;;;;;71.18;56.75;;;18.90;1.00;;;;;;5053238;28;20036;-50
2022/10/14 19:41:08;;;;;;;80.60;57.45;;;18.90;1.00;;;;;;5052210;28;20032;-47
2022/10/14 19:43:34;;;;;;;78.30;56.08;;;18.90;1.00;;;;;;5053079;28;20024;-49
2022/10/14 19:46:04;;;;;;;73.30;56.47;;;18.80;1.00;;;;;;5052047;28;20517;-48
2022/10/14 19:48:30;;;;;;;76.85;55.97;;;18.90;1.00;;;;;;5053120;28;20025;-51
2022/10/14 19:50:58;;;;;;;74.72;55.92;;;18.80;1.00;;;;;;5052012;28;20021;-47
2022/10/14 19:53:24;;;;;;;74.78;56.15;;;18.80;1.00;;;;;;5042113;28;20049;-49
2022/10/14 19:55:49;;;;;;;70.03;53.75;;;18.80;1.00;;;;;;5052369;28;20021;-50
2022/10/14 19:58:15;;;;;;;77.47;57.05;;;18.80;1.00;;;;;;5051272;28;20029;-50
2022/10/14 20:00:44;;;;;;;81.20;57.88;;;18.80;1.00;;;;;;5040566;28;20436;-51
2022/10/14 20:03:10;;;;;;;82.32;58.60;;;18.80;1.00;;;;;;5047710;28;20091;-49
2022/10/14 20:05:35;;;;;;;78.53;57.20;;;18.80;1.00;;;;;;5052981;28;20493;-50
2022/10/14 20:08:16;;;;;;;77.13;59.05;;;18.80;1.00;;;;;;5051043;28;20032;-52
2022/10/14 20:10:42;;;;;;;77.90;58.75;;;18.70;1.00;;;;;;5039369;28;20363;-49
2022/10/14 20:13:08;;;;;;;80.10;58.72;;;18.70;1.00;;;;;;5051372;28;20064;-51
2022/10/14 20:15:33;;;;;;;78.38;56.53;;;18.70;1.00;;;;;;5052821;28;20017;-49
2022/10/14 20:17:59;;;;;;;77.22;58.92;;;18.70;1.00;;;;;;5041130;28;20074;-50
2022/10/14 20:20:24;;;;;;;81.18;58.83;;;18.70;1.00;;;;;;5052091;28;20031;-50
2022/10/14 20:22:50;;;;;;;80.10;56.97;;;18.60;1.00;;;;;;5054999;28;20032;-49
2022/10/14 20:25:15;;;;;;;82.00;57.53;;;18.70;1.00;;;;;;5052802;28;20454;-48
2022/10/14 20:27:41;;;;;;;70.13;54.63;;;18.60;1.00;;;;;;5051750;28;20093;-51
2022/10/14 20:30:07;;;;;;;72.10;54.20;;;18.60;1.00;;;;;;5052998;28;20024;-52
2022/10/14 20:32:33;;;;;;;73.57;57.80;;;18.60;1.00;;;;;;5066285;28;20040;-50
2022/10/14 20:34:58;;;;;;;77.07;57.53;;;18.60;1.00;;;;;;5061935;28;20024;-49
2022/10/14 20:37:24;;;;;;;79.95;56.72;;;18.60;1.00;;;;;;5055362;28;20025;-51
2022/10/14 20:39:51;;;;;;;74.32;56.15;;;18.50;1.00;;;;;;5056635;28;20372;-48
2022/10/14 20:42:17;;;;;;;72.70;57.40;;;18.60;1.00;;;;;;5043802;28;20052;-48
2022/10/14 20:44:43;;;;;;;76.28;57.47;;;18.50;1.00;;;;;;5040127;28;20022;-48
2022/10/14 20:47:08;;;;;;;74.43;54.22;;;18.50;1.00;;;;;;5045262;28;20033;-49
2022/10/14 20:49:34;;;;;;;77.82;56.03;;;18.50;1.00;;;;;;5056496;28;20076;-52
2022/10/14 20:51:59;;;;;;;77.15;55.28;;;18.50;1.00;;;;;;5051221;28;20040;-49
2022/10/14 20:54:25;;;;;;;78.10;57.33;;;18.50;1.00;;;;;;5056626;28;20044;-51
2022/10/14 20:56:51;;;;;;;75.53;55.50;;;18.50;1.00;;;;;;5054393;28;20111;-51
2022/10/14 20:59:16;;;;;;;77.07;56.35;;;18.50;1.00;;;;;;5056291;28;20363;-49
2022/10/14 21:01:42;;;;;;;76.60;55.83;;;18.50;1.00;;;;;;5053479;28;20033;-49
2022/10/14 21:04:07;;;;;;;76.50;57.35;;;18.50;1.00;;;;;;5056380;28;20120;-51
2022/10/14 21:06:34;;;;;;;77.30;56.78;;;18.50;1.00;;;;;;5054207;28;20023;-49
2022/10/14 21:09:00;;;;;;;73.85;54.90;;;18.50;1.00;;;;;;5056088;28;20039;-52
2022/10/14 21:11:26;;;;;;;71.65;52.97;;;18.50;1.00;;;;;;5053122;28;21904;-53
2022/10/14 21:13:54;;;;;;;74.55;53.45;;;18.40;1.00;;;;;;5054405;28;20112;-48
2022/10/14 21:16:23;;;;;;;74.65;54.28;;;18.40;1.00;;;;;;5057717;28;20032;-51
2022/10/14 21:18:54;;;;;;;75.78;56.47;;;18.40;1.00;;;;;;5055353;28;20029;-55
2022/10/14 21:21:21;;;;;;;74.70;57.38;;;18.40;1.00;;;;;;5054807;28;20021;-53
2022/10/14 21:23:47;;;;;;;73.78;55.45;;;18.50;1.00;;;;;;5051990;28;20040;-51
2022/10/14 21:26:13;;;;;;;82.30;58.78;;;18.40;1.00;;;;;;5055351;28;20025;-52
2022/10/14 21:28:54;;;;;;;76.47;56.03;;;18.40;1.00;;;;;;5054471;28;20508;-52
2022/10/14 21:31:20;;;;;;;75.45;54.80;;;18.50;1.00;;;;;;5054062;28;20036;-53
2022/10/14 21:33:57;;;;;;;77.47;57.25;;;18.40;1.00;;;;;;5054876;28;20070;-50
2022/10/14 21:36:23;;;;;;;72.60;53.88;;;18.40;1.00;;;;;;5044908;28;20033;-54
2022/10/14 21:38:50;;;;;;;76.35;55.97;;;18.40;1.00;;;;;;5055403;28;20110;-54
2022/10/14 21:41:15;;;;;;;74.72;53.90;;;18.40;1.00;;;;;;5055526;28;20382;-50
2022/10/14 21:43:41;;;;;;;80.35;58.63;;;18.40;1.00;;;;;;5054538;28;20024;-54
2022/10/14 21:46:14;;;;;;;77.43;54.20;;;18.40;1.00;;;;;;5055128;28;20527;-52
2022/10/14 21:48:41;;;;;;;73.13;54.78;;;18.40;1.00;;;;;;5054033;28;20043;-53
2022/10/14 21:51:12;;;;;;;76.93;53.67;;;18.30;1.00;;;;;;5055147;28;20021;-50
2022/10/14 21:53:40;;;;;;;71.10;53.30;;;18.30;1.00;;;;;;5053809;28;20040;-48
2022/10/14 21:56:06;;;;;;;75.90;54.97;;;18.30;1.00;;;;;;5053946;28;20051;-48
2022/10/14 21:58:32;;;;;;;82.97;56.28;;;18.30;1.00;;;;;;5054462;28;20033;-50
2022/10/14 22:01:01;;;;;;;81.43;58.80;;;18.30;1.00;;;;;;5055091;28;20359;-50
2022/10/14 22:03:27;;;;;;;76.05;56.00;;;18.30;1.00;;;;;;5053886;28;20550;-49
2022/10/14 22:06:04;;;;;;;79.50;56.97;;;18.30;1.00;;;;;;5059171;28;20053;-48
2022/10/14 22:08:35;;;;;;;76.90;56.05;;;18.20;1.00;;;;;;5053762;28;20090;-50
2022/10/14 22:11:02;;;;;;;74.75;54.50;;;18.20;1.00;;;;;;5054334;28;20500;-49
2022/10/14 22:13:28;;;;;;;80.03;56.42;;;18.20;1.00;;;;;;5054279;28;20041;-51
2022/10/14 22:15:54;;;;;;;77.78;57.00;;;18.20;1.00;;;;;;5047588;28;20026;-48
2022/10/14 22:18:20;;;;;;;79.15;57.35;;;18.20;1.00;;;;;;5049223;28;20111;-50
2022/10/14 22:20:47;;;;;;;75.00;56.08;;;18.20;1.00;;;;;;5054672;28;20063;-49
2022/10/14 22:23:12;;;;;;;75.65;57.10;;;18.20;1.00;;;;;;5048101;28;20078;-49
2022/10/14 22:25:38;;;;;;;76.57;56.60;;;18.20;1.00;;;;;;5054328;28;20021;-49
2022/10/14 22:31:39;;;;;;;76.32;54.22;;;18.30;1.00;;;;;;5051438;28;20035;-48
2022/10/14 22:34:06;;;;;;;76.47;54.42;;;18.30;1.00;;;;;;5050938;28;20048;-48
2022/10/14 22:36:32;;;;;;;74.65;54.38;;;18.30;1.00;;;;;;5053487;28;20025;-48
2022/10/14 22:39:00;;;;;;;81.70;56.70;;;18.30;1.00;;;;;;5049491;28;20375;-50
2022/10/14 22:41:26;;;;;;;82.60;57.80;;;18.30;1.00;;;;;;5053338;28;20112;-48
2022/10/14 22:43:55;;;;;;;81.80;58.78;;;18.30;1.00;;;;;;5052176;28;20462;-50
2022/10/14 22:46:23;;;;;;;77.78;55.40;;;18.30;1.00;;;;;;5053790;28;20036;-49
2022/10/14 22:48:54;;;;;;;78.55;57.63;;;18.30;1.00;;;;;;5052685;28;20032;-48
2022/10/14 22:51:21;;;;;;;78.60;56.60;;;18.30;1.00;;;;;;5053389;28;20031;-52
2022/10/14 22:53:46;;;;;;;73.72;55.92;;;18.30;1.00;;;;;;5048368;28;20037;-50
2022/10/14 22:56:21;;;;;;;79.22;58.53;;;18.30;1.00;;;;;;5049895;28;20021;-51
2022/10/14 22:58:57;;;;;;;;;;;18.30;1.00;;;;;;5048319;28;20029;-51
2022/10/14 23:01:26;;;;;;;82.57;56.92;;;18.20;1.00;;;;;;5053378;28;19904;-50
2022/10/14 23:03:52;;;;;;;82.47;59.03;;;18.20;1.00;;;;;;5052468;28;20017;-52
2022/10/14 23:06:18;;;;;;;82.13;57.85;;;18.30;1.00;;;;;;5053926;28;20428;-51
2022/10/14 23:08:43;;;;;;;83.45;60.17;;;18.30;1.00;;;;;;5052071;28;20041;-47
2022/10/14 23:11:13;;;;;;;82.63;59.03;;;18.30;1.00;;;;;;5052303;28;20020;-47
2022/10/14 23:13:38;;;;;;;90.40;61.40;;;18.30;1.00;;;;;;5039696;28;20041;-52
2022/10/14 23:16:06;;;;;;;84.13;64.13;;;18.30;1.00;;;;;;5053907;28;20019;-53
2022/10/14 23:18:34;;;;;;;87.25;64.75;;;18.30;1.00;;;;;;5040382;28;20479;-49
2022/10/14 23:21:11;;;;;;;87.90;66.03;;;18.30;1.00;;;;;;5033615;28;20034;-52
2022/10/14 23:23:37;;;;;;;85.80;64.25;;;18.30;1.00;;;;;;5048678;28;20100;-50
2022/10/14 23:26:04;;;;;;;89.82;67.45;;;18.30;1.00;;;;;;5053135;28;20033;-49
2022/10/14 23:28:29;;;;;;;93.57;66.80;;;18.30;1.00;;;;;;5052275;28;20044;-53
2022/10/14 23:30:55;;;;;;;87.03;63.90;;;18.30;1.00;;;;;;5053405;28;20024;-52
2022/10/14 23:33:21;;;;;;;86.93;65.65;;;18.30;1.00;;;;;;5049354;28;20041;-52
2022/10/14 23:35:46;;;;;;;82.95;61.58;;;18.30;1.00;;;;;;5052844;28;20099;-47
2022/10/14 23:38:12;;;;;;;90.88;66.30;;;18.30;1.00;;;;;;5051480;28;20504;-48
2022/10/14 23:40:38;;;;;;;95.57;68.53;;;18.30;1.00;;;;;;5053266;28;20029;-47
2022/10/14 23:43:03;;;;;;;85.90;65.18;;;18.20;1.00;;;;;;5051281;28;20050;-50
2022/10/14 23:45:29;;;;;;;87.63;61.63;;;18.20;1.00;;;;;;5049870;28;20017;-47
2022/10/14 23:47:54;;;;;;;83.93;60.97;;;18.20;1.00;;;;;;5049059;28;20425;-50
2022/10/14 23:50:20;;;;;;;83.05;58.78;;;18.20;1.00;;;;;;5052988;28;20482;-49
2022/10/14 23:52:46;;;;;;;82.05;61.10;;;18.20;1.00;;;;;;5067144;28;20079;-51
2022/10/14 23:55:12;;;;;;;84.95;63.75;;;18.10;1.00;;;;;;5053357;28;20021;-50
2022/10/14 23:57:39;;;;;;;88.10;64.47;;;18.00;1.00;;;;;;5052132;28;20125;-47
